Terminal Aerodrome Forecast
Issued by NWS Paducah, KY

Home | Current Version | Previous Version | Text Only | Print | Product List | Glossary On
Versions: 1 2 3 4 5 6 7 8 9 10 11 12 13 14 15 16 17 18 19 20 21 22 23 24 25 26 27 28
000
FTUS43 KPAH 151014 AAB
TAFEVV
TAF AMD
KEVV 151014Z 1510/1606 22012KT P6SM OVC010 WS020/24045KT
      TEMPO 1510/1513 5SM -DZ BR OVC006
     FM151500 21013G22KT 6SM BR OVC010
     FM151900 22015G25KT 6SM BR OVC015
     FM152200 23012G21KT P6SM OVC015
     FM160300 26010G18KT 6SM BR VCSH OVC010=

USA.gov is the U.S. government's official web portal to all federal, state and local government web resources and services.